createdAt,value
2023-03-15T00:02:01.955Z,1.10
2023-03-15T00:04:29.968Z,1.15
2023-03-15T00:06:57.246Z,1.30
2023-03-15T00:09:25.067Z,1.00
2023-03-15T00:11:54.959Z,1.13
2023-03-15T00:14:23.301Z,1.15
2023-03-15T00:16:50.749Z,0.98
2023-03-15T00:19:17.991Z,1.20
2023-03-15T00:21:45.389Z,1.05
2023-03-15T00:24:12.741Z,1.00
2023-03-15T00:26:40.166Z,1.52
2023-03-15T00:29:09.198Z,1.50
2023-03-15T00:31:36.693Z,1.20
2023-03-15T00:34:04.005Z,1.40
2023-03-15T00:36:33.277Z,1.02
2023-03-15T00:39:00.646Z,1.55
2023-03-15T00:41:27.973Z,1.30
2023-03-15T00:43:55.374Z,2.00
2023-03-15T00:46:26.056Z,1.50
2023-03-15T00:48:53.685Z,1.70
2023-03-15T00:51:23.469Z,1.63
2023-03-15T00:53:52.626Z,1.90
2023-03-15T00:56:26.020Z,1.48
2023-03-15T00:58:53.713Z,1.70
2023-03-15T01:01:29.859Z,1.50
2023-03-15T01:03:57.728Z,1.50
2023-03-15T01:06:28.688Z,1.50
2023-03-15T01:08:57.241Z,1.30
2023-03-15T01:11:27.823Z,1.58
2023-03-15T01:13:57.379Z,1.60
2023-03-15T01:16:25.678Z,1.55
2023-03-15T01:18:53.570Z,1.30
2023-03-15T01:21:22.605Z,1.50
2023-03-15T01:23:51.083Z,1.30
2023-03-15T01:26:22.585Z,1.10
2023-03-15T01:28:50.008Z,1.17
2023-03-15T01:31:26.713Z,1.45
2023-03-15T01:33:54.955Z,1.83
2023-03-15T01:36:22.627Z,1.30
2023-03-15T01:38:50.421Z,1.15
2023-03-15T01:41:21.315Z,1.40
2023-03-15T01:43:48.897Z,1.58
2023-03-15T01:46:23.781Z,1.60
2023-03-15T01:49:18.109Z,1.60
2023-03-15T01:51:51.505Z,1.42
2023-03-15T01:54:19.372Z,1.70
2023-03-15T01:57:20.067Z,1.60
2023-03-15T02:00:02.327Z,1.70
2023-03-15T02:02:47.007Z,1.50
2023-03-15T02:05:32.836Z,1.40
2023-03-15T02:08:05.972Z,1.88
2023-03-15T02:10:42.949Z,1.73
2023-03-15T02:13:14.650Z,1.55
2023-03-15T02:15:47.069Z,1.50
2023-03-15T02:18:22.132Z,1.60
2023-03-15T02:21:02.830Z,1.60
2023-03-15T02:23:32.362Z,1.30
2023-03-15T02:26:23.053Z,1.63
2023-03-15T02:28:52.675Z,1.45
2023-03-15T02:31:21.689Z,1.50
2023-03-15T02:33:57.148Z,1.40
2023-03-15T02:36:32.338Z,1.20
2023-03-15T02:38:59.840Z,1.45
2023-03-15T02:41:37.121Z,1.50
2023-03-15T02:44:08.788Z,1.52
2023-03-15T02:46:37.013Z,1.63
2023-03-15T02:49:07.698Z,1.60
2023-03-15T02:51:35.017Z,1.80
2023-03-15T02:54:02.364Z,1.83
2023-03-15T02:56:29.658Z,1.67
2023-03-15T02:58:58.192Z,1.95
2023-03-15T03:01:25.901Z,1.75
2023-03-15T03:03:53.304Z,1.52
2023-03-15T03:06:21.305Z,1.55
2023-03-15T03:08:49.044Z,1.88
2023-03-15T03:11:19.717Z,1.60
2023-03-15T03:13:47.484Z,1.80
2023-03-15T03:16:15.040Z,2.00
2023-03-15T03:18:44.006Z,1.85
2023-03-15T03:21:11.488Z,1.70
2023-03-15T03:23:38.740Z,1.80
2023-03-15T03:26:17.191Z,1.88
2023-03-15T03:28:47.824Z,1.95
2023-03-15T03:31:27.482Z,2.10
2023-03-15T03:33:57.321Z,2.10
2023-03-15T03:36:25.962Z,1.83
2023-03-15T03:38:54.175Z,1.80
2023-03-15T03:41:22.249Z,2.00
2023-03-15T03:43:50.084Z,1.67
2023-03-15T03:46:17.813Z,1.98
2023-03-15T03:48:49.888Z,2.00
2023-03-15T03:51:17.165Z,2.00
2023-03-15T03:53:44.565Z,1.40
2023-03-15T03:56:12.556Z,1.60
2023-03-15T03:58:40.012Z,1.33
2023-03-15T04:01:18.662Z,1.55
2023-03-15T04:03:51.592Z,1.63
2023-03-15T04:06:23.087Z,1.75
2023-03-15T04:08:50.464Z,1.55
2023-03-15T04:11:28.572Z,1.77
2023-03-15T04:13:59.766Z,1.63
2023-03-15T04:16:27.741Z,1.77
2023-03-15T04:19:00.666Z,1.35
2023-03-15T04:21:33.950Z,1.42
2023-03-15T04:24:21.491Z,1.90
2023-03-15T04:27:08.020Z,1.45
2023-03-15T04:29:56.363Z,1.50
2023-03-15T04:32:38.380Z,1.30
2023-03-15T04:35:31.316Z,1.25
2023-03-15T04:38:10.423Z,1.85
2023-03-15T04:40:49.052Z,1.27
2023-03-15T04:43:42.686Z,1.25
2023-03-15T04:46:25.289Z,1.50
2023-03-15T04:49:10.983Z,1.40
2023-03-15T04:52:04.201Z,1.40
2023-03-15T04:54:52.244Z,1.58
2023-03-15T04:57:33.682Z,1.60
2023-03-15T05:00:14.676Z,1.52
2023-03-15T05:03:00.800Z,1.40
2023-03-15T05:06:08.441Z,1.52
2023-03-15T05:09:05.509Z,1.52
2023-03-15T05:11:51.333Z,1.60
2023-03-15T05:14:53.777Z,1.70
2023-03-15T05:17:27.364Z,2.38
2023-03-15T05:20:14.518Z,1.80
2023-03-15T05:22:47.702Z,1.67
2023-03-15T05:25:29.807Z,1.90
2023-03-15T05:28:18.911Z,2.05
2023-03-15T05:31:04.410Z,2.28
2023-03-15T05:33:49.973Z,2.10
2023-03-15T05:36:43.422Z,2.20
2023-03-15T05:39:16.993Z,2.28
2023-03-15T05:42:02.738Z,2.30
2023-03-15T05:44:38.570Z,2.20
2023-03-15T05:47:24.349Z,2.22
2023-03-15T05:50:06.915Z,2.05
2023-03-15T05:53:00.364Z,2.00
2023-03-15T05:55:56.652Z,2.20
2023-03-15T05:58:40.220Z,2.42
2023-03-15T06:01:33.450Z,2.05
2023-03-15T06:04:14.866Z,2.30
2023-03-15T06:06:42.141Z,2.50
2023-03-15T06:09:11.361Z,2.33
2023-03-15T06:11:39.800Z,1.98
2023-03-15T06:14:10.631Z,2.25
2023-03-15T06:16:45.406Z,2.60
2023-03-15T06:19:12.733Z,2.40
2023-03-15T06:21:39.977Z,2.80
2023-03-15T06:24:13.392Z,2.20
2023-03-15T06:26:40.812Z,1.85
2023-03-15T06:29:10.083Z,2.90
2023-03-15T06:31:37.466Z,2.35
2023-03-15T06:34:08.927Z,2.38
2023-03-15T06:36:37.416Z,2.70
2023-03-15T06:39:06.015Z,2.30
2023-03-15T06:41:33.153Z,2.80
2023-03-15T06:44:09.146Z,2.20
2023-03-15T06:46:37.920Z,2.78
2023-03-15T06:49:06.871Z,2.05
2023-03-15T06:51:34.060Z,2.10
2023-03-15T06:54:01.217Z,2.00
2023-03-15T06:56:30.011Z,2.20
2023-03-15T06:58:57.340Z,2.30
2023-03-15T07:01:24.553Z,2.38
2023-03-15T07:03:51.893Z,2.30
2023-03-15T07:06:19.106Z,2.38
2023-03-15T07:08:46.498Z,2.22
2023-03-15T07:11:14.284Z,2.35
2023-03-15T07:13:41.644Z,2.47
2023-03-15T07:16:08.874Z,2.15
2023-03-15T07:18:36.124Z,2.22
2023-03-15T07:21:05.168Z,2.38
2023-03-15T07:23:32.397Z,2.38
2023-03-15T07:26:00.124Z,2.42
2023-03-15T07:28:28.156Z,2.63
2023-03-15T07:31:01.188Z,2.90
2023-03-15T07:33:30.151Z,2.90
2023-03-15T07:35:57.939Z,2.65
2023-03-15T07:38:29.274Z,2.78
2023-03-15T07:40:57.488Z,2.72
2023-03-15T07:43:24.868Z,3.30
2023-03-15T07:46:04.190Z,3.67
2023-03-15T07:48:31.637Z,4.32
2023-03-15T07:50:58.893Z,3.28
2023-03-15T07:53:26.552Z,3.70
2023-03-15T07:55:54.178Z,3.40
2023-03-15T07:58:21.331Z,3.42
2023-03-15T08:00:48.782Z,2.90
2023-03-15T08:03:16.021Z,3.08
2023-03-15T08:05:43.183Z,3.00
2023-03-15T08:08:10.467Z,3.05
2023-03-15T08:10:37.815Z,3.45
2023-03-15T08:13:04.930Z,3.45
2023-03-15T08:15:32.164Z,3.40
2023-03-15T08:18:00.368Z,3.40
2023-03-15T08:20:29.681Z,3.50
2023-03-15T08:22:57.268Z,3.50
2023-03-15T08:25:25.229Z,3.50
2023-03-15T08:27:52.926Z,3.33
2023-03-15T08:30:21.881Z,4.05
2023-03-15T08:32:53.065Z,3.50
2023-03-15T08:35:22.149Z,3.50
2023-03-15T08:37:49.480Z,3.75
2023-03-15T08:40:19.514Z,2.80
2023-03-15T08:42:46.656Z,3.70
2023-03-15T08:45:13.826Z,3.45
2023-03-15T08:47:40.998Z,3.30
2023-03-15T08:50:12.615Z,3.83
2023-03-15T08:52:40.343Z,3.47
2023-03-15T08:55:08.204Z,3.30
2023-03-15T08:57:35.489Z,3.75
2023-03-15T09:00:09.338Z,3.60
2023-03-15T09:02:37.682Z,3.15
2023-03-15T09:05:07.422Z,3.35
2023-03-15T09:07:34.802Z,3.40
2023-03-15T09:10:05.495Z,2.97
2023-03-15T09:12:33.040Z,2.63
2023-03-15T09:15:00.226Z,3.08
2023-03-15T09:17:27.452Z,3.08
2023-03-15T09:19:55.020Z,3.10
2023-03-15T09:22:38.624Z,2.72
2023-03-15T09:25:08.580Z,2.78
2023-03-15T09:27:36.020Z,3.30
2023-03-15T09:30:04.570Z,2.97
2023-03-15T09:32:36.771Z,2.97
2023-03-15T09:35:05.366Z,3.67
2023-03-15T09:37:33.014Z,2.88
2023-03-15T09:40:02.001Z,3.70
2023-03-15T09:42:49.933Z,3.42
2023-03-15T09:45:41.747Z,3.30
2023-03-15T09:48:57.173Z,2.90
2023-03-15T09:51:51.686Z,3.38
2023-03-15T09:54:37.770Z,2.65
2023-03-15T09:57:10.796Z,3.10
2023-03-15T09:59:45.810Z,3.00
2023-03-15T10:02:18.223Z,3.10
2023-03-15T10:04:47.817Z,2.80
2023-03-15T10:07:16.897Z,3.08
2023-03-15T10:09:44.232Z,2.65
2023-03-15T10:12:13.819Z,2.70
2023-03-15T10:15:18.290Z,2.78
2023-03-15T10:18:13.859Z,2.58
2023-03-15T10:20:47.722Z,2.30
2023-03-15T10:23:38.983Z,2.45
2023-03-15T10:26:13.908Z,2.00
2023-03-15T10:28:43.715Z,2.22
2023-03-15T10:31:36.565Z,2.30
2023-03-15T10:34:11.711Z,2.67
2023-03-15T10:36:49.752Z,2.25
2023-03-15T10:39:17.419Z,2.30
2023-03-15T10:41:47.694Z,2.10
2023-03-15T10:44:21.397Z,2.47
2023-03-15T10:47:16.137Z,2.15
2023-03-15T10:49:49.655Z,2.30
2023-03-15T10:52:35.699Z,2.22
2023-03-15T10:55:14.988Z,1.80
2023-03-15T10:57:54.443Z,1.90
2023-03-15T11:00:34.637Z,1.60
2023-03-15T11:03:23.269Z,1.85
2023-03-15T11:05:53.602Z,3.17
2023-03-15T11:08:24.520Z,1.85
2023-03-15T11:11:00.205Z,2.22
2023-03-15T11:13:30.281Z,1.80
2023-03-15T11:16:04.468Z,2.35
2023-03-15T11:18:37.186Z,2.05
2023-03-15T11:21:10.795Z,1.80
2023-03-15T11:23:41.840Z,1.90
2023-03-15T11:26:29.525Z,2.00
2023-03-15T11:29:22.004Z,1.98
2023-03-15T11:31:51.525Z,1.90
2023-03-15T11:34:32.584Z,1.60
2023-03-15T11:37:09.122Z,1.73
2023-03-15T11:39:45.765Z,1.60
2023-03-15T11:44:59.167Z,1.67
2023-03-15T11:47:40.847Z,1.58
2023-03-15T11:50:13.440Z,1.55
2023-03-15T11:52:41.589Z,1.83
2023-03-15T11:55:26.906Z,1.90
2023-03-15T11:57:55.956Z,1.50
2023-03-15T12:00:50.976Z,1.60
2023-03-15T12:03:35.889Z,2.05
2023-03-15T12:06:17.514Z,2.70
2023-03-15T12:08:56.060Z,3.10
2023-03-15T12:11:23.343Z,2.17
2023-03-15T12:14:20.380Z,1.88
2023-03-15T12:16:48.087Z,1.52
2023-03-15T12:19:21.417Z,3.05
2023-03-15T12:21:54.904Z,1.60
2023-03-15T12:24:30.542Z,1.42
2023-03-15T12:27:03.813Z,1.10
2023-03-15T12:29:33.141Z,1.73
2023-03-15T12:32:03.058Z,1.30
2023-03-15T12:34:53.033Z,2.10
2023-03-15T12:37:28.002Z,1.42
2023-03-15T12:40:19.086Z,1.15
2023-03-15T12:42:49.111Z,2.45
2023-03-15T12:45:16.331Z,1.35
2023-03-15T12:48:10.208Z,1.75
2023-03-15T12:50:46.208Z,1.58
2023-03-15T12:53:32.499Z,2.60
2023-03-15T12:56:29.752Z,1.85
2023-03-15T12:59:05.369Z,1.92
2023-03-15T13:01:33.805Z,1.70
2023-03-15T13:04:03.719Z,1.52
2023-03-15T13:07:03.275Z,2.00
2023-03-15T13:09:50.143Z,1.60
2023-03-15T13:12:34.980Z,1.52
2023-03-15T13:15:16.540Z,1.40
2023-03-15T13:17:53.623Z,1.35
2023-03-15T13:21:06.381Z,1.48
2023-03-15T13:23:34.754Z,1.10
2023-03-15T13:26:23.872Z,1.20
2023-03-15T13:29:01.013Z,1.50
2023-03-15T13:31:31.616Z,1.40
2023-03-15T13:34:16.769Z,1.33
2023-03-15T13:36:48.211Z,1.75
2023-03-15T13:39:23.523Z,1.48
2023-03-15T13:42:01.345Z,1.40
2023-03-15T13:44:29.689Z,1.52
2023-03-15T13:46:58.309Z,1.80
2023-03-15T13:49:30.716Z,1.98
2023-03-15T13:51:58.479Z,1.23
2023-03-15T13:54:34.590Z,1.40
2023-03-15T13:57:20.049Z,1.33
2023-03-15T13:59:54.805Z,1.30
2023-03-15T14:02:37.757Z,1.38
2023-03-15T14:05:09.605Z,1.42
2023-03-15T14:07:50.661Z,1.02
2023-03-15T14:10:19.066Z,1.20
2023-03-15T14:12:46.709Z,1.20
2023-03-15T14:15:33.952Z,1.27
2023-03-15T14:18:09.131Z,1.40
2023-03-15T14:20:45.677Z,1.20
2023-03-15T14:23:17.293Z,1.20
2023-03-15T14:25:51.001Z,1.08
2023-03-15T14:28:18.826Z,1.27
2023-03-15T14:30:54.101Z,1.45
2023-03-15T14:33:32.652Z,1.40
2023-03-15T14:36:03.753Z,1.70
2023-03-15T14:38:39.344Z,1.65
2023-03-15T14:41:32.650Z,1.15
2023-03-15T14:44:01.438Z,1.75
2023-03-15T14:46:30.946Z,1.50
2023-03-15T14:48:58.131Z,1.20
2023-03-15T14:51:26.045Z,1.17
2023-03-15T14:53:56.558Z,1.30
2023-03-15T14:56:25.093Z,1.40
2023-03-15T14:58:55.995Z,1.10
2023-03-15T15:01:27.701Z,1.25
2023-03-15T15:04:02.203Z,1.10
2023-03-15T15:06:36.899Z,1.40
2023-03-15T15:09:06.341Z,1.30
2023-03-15T15:11:33.943Z,1.20
2023-03-15T15:14:01.229Z,1.20
2023-03-15T15:16:28.566Z,1.20
2023-03-15T15:18:55.931Z,1.50
2023-03-15T15:21:30.655Z,1.35
2023-03-15T15:23:59.680Z,1.30
2023-03-15T15:26:29.330Z,1.40
2023-03-15T15:28:57.204Z,1.88
2023-03-15T15:31:26.707Z,1.38
2023-03-15T15:33:55.190Z,1.40
2023-03-15T15:36:31.017Z,1.23
2023-03-15T15:39:01.772Z,1.40
2023-03-15T15:41:32.708Z,1.50
2023-03-15T15:43:59.971Z,1.30
2023-03-15T15:46:27.412Z,1.30
2023-03-15T15:48:54.916Z,1.42
2023-03-15T15:51:26.184Z,1.40
2023-03-15T15:53:57.972Z,1.38
2023-03-15T15:56:35.558Z,1.40
2023-03-15T15:59:08.971Z,1.60
2023-03-15T16:01:39.263Z,1.73
2023-03-15T16:04:13.500Z,1.30
2023-03-15T16:06:40.945Z,1.42
2023-03-15T16:09:11.340Z,1.50
2023-03-15T16:11:39.715Z,1.50
2023-03-15T16:14:06.998Z,1.45
2023-03-15T16:16:34.299Z,1.42
2023-03-15T16:19:01.513Z,1.40
2023-03-15T16:21:41.563Z,1.50
2023-03-15T16:24:17.466Z,1.20
2023-03-15T16:26:45.895Z,1.30
2023-03-15T16:29:21.399Z,1.80
2023-03-15T16:31:49.553Z,1.60
2023-03-15T16:34:19.959Z,1.40
2023-03-15T16:36:49.807Z,1.30
2023-03-15T16:39:17.643Z,1.30
2023-03-15T16:41:44.823Z,1.33
2023-03-15T16:44:13.868Z,1.08
2023-03-15T16:46:41.241Z,1.40
2023-03-15T16:49:09.020Z,1.35
2023-03-15T16:51:39.315Z,1.48
2023-03-15T16:54:19.540Z,1.30
2023-03-15T16:56:51.875Z,1.50
2023-03-15T16:59:19.624Z,1.40
2023-03-15T17:01:47.802Z,1.40
2023-03-15T17:04:15.628Z,1.42
2023-03-15T17:06:47.700Z,1.45
2023-03-15T17:09:24.319Z,1.80
2023-03-15T17:11:52.838Z,1.60
2023-03-15T17:14:27.928Z,1.50
2023-03-15T17:16:55.290Z,1.50
2023-03-15T17:19:22.431Z,1.80
2023-03-15T17:21:51.581Z,2.10
2023-03-15T17:24:19.243Z,1.85
2023-03-15T17:26:46.632Z,1.80
2023-03-15T17:29:16.231Z,1.83
2023-03-15T17:31:44.992Z,1.75
2023-03-15T17:34:12.335Z,1.55
2023-03-15T17:36:41.449Z,1.48
2023-03-15T17:39:15.007Z,1.50
2023-03-15T17:41:47.035Z,1.60
2023-03-15T17:44:14.618Z,1.67
2023-03-15T17:46:43.296Z,1.48
2023-03-15T17:49:13.632Z,1.77
2023-03-15T17:51:41.410Z,1.40
2023-03-15T17:54:18.856Z,1.55
2023-03-15T17:56:46.415Z,1.60
2023-03-15T17:59:14.099Z,1.50
2023-03-15T18:01:46.861Z,1.60
2023-03-15T18:04:15.401Z,1.80
2023-03-15T18:06:43.120Z,1.92
2023-03-15T18:09:13.244Z,1.45
2023-03-15T18:11:42.812Z,1.80
2023-03-15T18:14:15.628Z,1.90
2023-03-15T18:16:44.165Z,1.85
2023-03-15T18:19:12.178Z,1.80
2023-03-15T18:21:39.655Z,2.08
2023-03-15T18:24:07.353Z,1.60
2023-03-15T18:26:34.640Z,1.70
2023-03-15T18:29:02.056Z,1.90
2023-03-15T18:31:29.494Z,1.90
2023-03-15T18:33:57.041Z,1.77
2023-03-15T18:36:24.428Z,1.90
2023-03-15T18:38:51.979Z,1.65
2023-03-15T18:41:22.549Z,1.75
2023-03-15T18:43:50.825Z,1.70
2023-03-15T18:46:20.605Z,1.85
2023-03-15T18:48:48.297Z,2.03
2023-03-15T18:51:17.645Z,2.10
2023-03-15T18:53:45.682Z,2.00
2023-03-15T18:56:20.153Z,1.73
2023-03-15T18:58:49.135Z,2.35
2023-03-15T19:01:18.239Z,1.90
2023-03-15T19:03:45.975Z,2.00
2023-03-15T19:06:13.638Z,2.00
2023-03-15T19:08:41.532Z,1.95
2023-03-15T19:11:11.029Z,1.98
2023-03-15T19:13:38.837Z,2.25
2023-03-15T19:16:06.543Z,1.77
2023-03-15T19:18:34.342Z,1.90
2023-03-15T19:21:03.122Z,2.22
2023-03-15T19:23:30.660Z,2.13
2023-03-15T19:25:57.996Z,1.90
2023-03-15T19:28:25.536Z,2.05
2023-03-15T19:30:52.896Z,1.95
2023-03-15T19:33:20.439Z,2.20
2023-03-15T19:35:47.818Z,1.88
2023-03-15T19:38:15.625Z,2.08
2023-03-15T19:40:42.908Z,2.05
2023-03-15T19:43:10.673Z,2.10
2023-03-15T19:45:37.999Z,1.80
2023-03-15T19:48:05.669Z,2.05
2023-03-15T19:50:34.409Z,2.60
2023-03-15T19:53:01.986Z,2.30
2023-03-15T19:55:31.606Z,2.58
2023-03-15T19:57:59.548Z,2.30
2023-03-15T20:00:26.980Z,2.67
2023-03-15T20:02:55.953Z,2.00
2023-03-15T20:05:25.850Z,2.20
2023-03-15T20:07:54.861Z,2.28
2023-03-15T20:10:22.597Z,2.28
2023-03-15T20:12:50.234Z,2.85
2023-03-15T20:15:19.428Z,2.17
2023-03-15T20:17:47.089Z,2.40
2023-03-15T20:20:15.042Z,1.70
2023-03-15T20:22:44.860Z,2.05
2023-03-15T20:25:19.763Z,2.30
2023-03-15T20:27:47.896Z,2.30
2023-03-15T20:30:17.495Z,2.33
2023-03-15T20:32:45.067Z,2.17
2023-03-15T20:35:12.597Z,2.40
2023-03-15T20:37:41.757Z,2.00
2023-03-15T20:40:12.946Z,2.20
2023-03-15T20:42:41.575Z,2.33
2023-03-15T20:45:10.512Z,2.35
2023-03-15T20:47:38.500Z,2.60
2023-03-15T20:50:11.644Z,2.40
2023-03-15T20:52:39.578Z,2.45
2023-03-15T20:55:08.311Z,2.75
2023-03-15T20:57:36.866Z,2.95
2023-03-15T21:00:21.491Z,2.85
2023-03-15T21:02:49.535Z,2.28
2023-03-15T21:05:17.631Z,2.20
2023-03-15T21:07:45.803Z,2.63
2023-03-15T21:10:14.146Z,2.40
2023-03-15T21:12:41.516Z,2.20
2023-03-15T21:15:09.082Z,2.40
2023-03-15T21:17:36.458Z,2.53
2023-03-15T21:20:07.682Z,2.67
2023-03-15T21:22:35.195Z,2.70
2023-03-15T21:25:03.349Z,2.35
2023-03-15T21:27:30.757Z,2.40
2023-03-15T21:29:58.171Z,2.05
2023-03-15T21:32:26.000Z,2.30
2023-03-15T21:34:53.429Z,2.80
2023-03-15T21:37:20.821Z,2.83
2023-03-15T21:39:48.349Z,2.78
2023-03-15T21:42:15.747Z,3.17
2023-03-15T21:44:43.165Z,3.17
2023-03-15T21:47:11.578Z,3.00
2023-03-15T21:49:39.639Z,2.63
2023-03-15T21:52:07.173Z,3.03
2023-03-15T21:54:34.714Z,3.08
2023-03-15T21:57:02.153Z,3.20
2023-03-15T21:59:29.637Z,2.85
2023-03-15T22:01:57.761Z,2.85
2023-03-15T22:04:25.442Z,2.65
2023-03-15T22:06:53.298Z,3.05
2023-03-15T22:09:23.771Z,2.88
2023-03-15T22:11:51.310Z,3.33
2023-03-15T22:14:19.179Z,2.80
2023-03-15T22:16:46.606Z,2.38
2023-03-15T22:19:14.935Z,2.80
2023-03-15T22:21:42.629Z,2.35
2023-03-15T22:24:10.517Z,2.78
2023-03-15T22:26:37.868Z,2.75
2023-03-15T22:29:05.412Z,3.53
2023-03-15T22:31:33.026Z,3.85
2023-03-15T22:34:01.952Z,3.60
2023-03-15T22:36:30.408Z,3.50
2023-03-15T22:38:58.908Z,3.38
2023-03-15T22:41:26.402Z,3.85
2023-03-15T22:43:55.596Z,3.17
2023-03-15T22:46:23.090Z,2.55
2023-03-15T22:48:50.677Z,2.65
2023-03-15T22:51:18.124Z,2.75
2023-03-15T22:53:45.781Z,3.72
2023-03-15T22:56:14.882Z,4.05
2023-03-15T22:58:42.806Z,3.30
2023-03-15T23:01:10.599Z,3.20
2023-03-15T23:03:38.022Z,3.15
2023-03-15T23:06:05.858Z,2.78
2023-03-15T23:08:33.356Z,3.50
2023-03-15T23:11:00.740Z,3.50
2023-03-15T23:13:28.164Z,3.03
2023-03-15T23:15:55.857Z,3.28
2023-03-15T23:18:23.368Z,3.42
2023-03-15T23:20:53.969Z,4.32
2023-03-15T23:23:21.420Z,4.07
2023-03-15T23:25:51.188Z,3.75
2023-03-15T23:28:21.311Z,4.55
2023-03-15T23:30:48.822Z,4.75
2023-03-15T23:33:16.561Z,3.10
2023-03-15T23:35:44.076Z,4.95
2023-03-15T23:38:13.907Z,5.15
2023-03-15T23:40:41.355Z,4.35
2023-03-15T23:43:09.673Z,4.20
2023-03-15T23:45:37.143Z,5.15
2023-03-15T23:48:04.733Z,4.15
2023-03-15T23:50:32.109Z,4.47
2023-03-15T23:52:59.640Z,4.60
2023-03-15T23:55:27.092Z,5.35
2023-03-15T23:57:54.429Z,4.90
